Time;durP1;ratioP1;P1;durP2;ratioP2;P2;SDS_P1;SDS_P2;PMS_P1;PMS_P2;Temp;Humidity;BMP_temperature;BMP_pressure;BME280_temperature;BME280_humidity;BME280_pressure;Samples;Min_cycle;Max_cycle;Signal;HPM_P1;HPM_P2
2023/05/24 00:00:27;;;;;;;0.57;0.57;;;;;;;13.07;49.07;101783.31;5175401;28;20775;-90
2023/05/24 00:03:20;;;;;;;0.43;0.43;;;;;;;13.01;49.75;101773.78;5209391;28;20037;-89
2023/05/24 00:06:11;;;;;;;1.60;1.50;;;;;;;13.11;48.65;101778.84;5210381;28;20045;-90
2023/05/24 00:09:03;;;;;;;0.30;0.30;;;;;;;12.94;50.04;101789.72;5191985;28;20033;-90
2023/05/24 00:11:53;;;;;;;0.40;0.40;;;;;;;13.05;48.56;101780.72;5193295;28;20030;-90
2023/05/24 00:14:44;;;;;;;1.20;1.10;;;;;;;13.10;49.24;101790.28;5200785;28;20021;-90
2023/05/24 00:17:39;;;;;;;0.30;0.30;;;;;;;13.02;50.22;101790.44;5180670;28;20037;-89
2023/05/24 00:20:30;;;;;;;0.30;0.30;;;;;;;13.04;49.25;101793.91;5182939;28;20049;-89
2023/05/24 00:23:21;;;;;;;2.40;2.20;;;;;;;12.78;50.63;101782.13;5178905;28;20121;-90
2023/05/24 00:26:12;;;;;;;0.73;0.70;;;;;;;12.86;50.08;101790.75;5193655;28;20029;-88
2023/05/24 00:29:03;;;;;;;6.03;1.08;;;;;;;12.90;50.08;101786.28;5195594;28;20041;-90
2023/05/24 00:31:53;;;;;;;6.80;1.40;;;;;;;12.83;50.22;101779.41;5178987;28;20116;-89
2023/05/24 00:34:44;;;;;;;0.93;0.93;;;;;;;12.64;50.30;101778.88;5189899;28;20280;-89
2023/05/24 00:37:36;;;;;;;0.20;0.20;;;;;;;12.73;50.00;101774.31;5191835;28;20061;-89
2023/05/24 00:40:27;;;;;;;0.30;0.30;;;;;;;12.78;49.48;101774.22;5180492;28;20072;-89
2023/05/24 00:43:18;;;;;;;0.90;0.90;;;;;;;12.74;49.84;101770.78;5183334;28;20065;-89
2023/05/24 00:46:14;;;;;;;3.92;1.40;;;;;;;12.77;49.51;101774.25;5196626;28;20010;-90
2023/05/24 00:49:05;;;;;;;0.52;0.52;;;;;;;12.66;50.54;101774.47;5187040;28;20038;-89
2023/05/24 00:51:56;;;;;;;0.85;0.85;;;;;;;12.63;49.96;101772.78;5203466;28;20137;-90
2023/05/24 00:54:47;;;;;;;0.47;0.47;;;;;;;12.60;50.82;101776.31;5181019;28;20136;-90
2023/05/24 00:57:38;;;;;;;0.70;0.70;;;;;;;12.63;49.67;101778.03;5178671;28;20693;-89
2023/05/24 01:00:30;;;;;;;0.40;0.40;;;;;;;12.62;49.97;101771.03;5188565;28;20104;-90
2023/05/24 01:03:21;;;;;;;1.55;1.15;;;;;;;12.55;49.81;101772.91;5194990;28;20100;-89
2023/05/24 01:06:14;;;;;;;1.50;1.27;;;;;;;12.46;49.87;101775.69;5204341;28;20038;-89
2023/05/24 01:09:44;;;;;;;0.47;0.47;;;;;;;12.49;50.38;101772.13;5213832;28;20057;-90
2023/05/24 01:12:51;;;;;;;3.50;1.42;;;;;;;11.85;53.60;101773.19;5174304;28;20056;-89
2023/05/24 01:16:08;;;;;;;0.30;0.30;;;;;;;12.28;50.59;101772.50;5187757;28;20033;-89
2023/05/24 01:19:11;;;;;;;0.40;0.40;;;;;;;12.34;50.61;101775.94;5180417;28;20037;-88
2023/05/24 01:22:37;;;;;;;0.73;0.73;;;;;;;12.34;50.08;101765.41;5170183;28;20042;-89
2023/05/24 01:25:45;;;;;;;0.47;0.47;;;;;;;12.37;50.69;101765.31;5173327;28;20045;-90
2023/05/24 01:28:38;;;;;;;0.63;0.63;;;;;;;12.37;50.28;101770.59;5190603;28;20065;-88
2023/05/24 01:31:29;;;;;;;0.32;0.30;;;;;;;12.41;51.85;101769.66;5171774;28;20417;-89
2023/05/24 01:34:19;;;;;;;0.57;0.47;;;;;;;12.41;51.07;101759.97;5179987;28;20025;-89
2023/05/24 01:37:10;;;;;;;1.77;0.93;;;;;;;12.40;50.77;101763.50;5176475;28;20045;-89
2023/05/24 01:40:03;;;;;;;0.30;0.30;;;;;;;12.33;50.74;101759.25;5187114;28;20398;-89
2023/05/24 01:43:15;;;;;;;0.50;0.50;;;;;;;12.36;50.75;101763.59;5179405;28;20056;-89
2023/05/24 01:46:26;;;;;;;0.20;0.20;;;;;;;12.39;51.18;101763.53;5184477;28;20057;-89
2023/05/24 01:49:25;;;;;;;0.43;0.43;;;;;;;12.37;51.46;101760.94;5178310;28;20033;-88
2023/05/24 01:52:21;;;;;;;0.45;0.45;;;;;;;12.31;51.87;101757.56;5213662;28;20026;-89
2023/05/24 01:55:16;;;;;;;0.60;0.60;;;;;;;12.35;50.89;101757.47;5200653;28;20040;-89
2023/05/24 01:58:09;;;;;;;0.20;0.20;;;;;;;12.35;51.02;101751.34;5212300;28;20026;-89
2023/05/24 02:01:01;;;;;;;0.30;0.30;;;;;;;12.36;51.37;101750.44;5228593;28;20033;-89
2023/05/24 02:03:52;;;;;;;0.52;0.52;;;;;;;12.28;51.27;101756.69;5197252;28;20012;-88
2023/05/24 02:06:43;;;;;;;0.30;0.30;;;;;;;12.23;51.36;101750.66;5198530;28;20085;-89
2023/05/24 02:09:34;;;;;;;0.20;0.20;;;;;;;12.23;51.52;101758.56;5201306;28;20045;-89
2023/05/24 02:12:25;;;;;;;1.02;1.02;;;;;;;12.17;50.88;101749.88;5189453;28;20065;-89
2023/05/24 02:15:15;;;;;;;0.47;0.47;;;;;;;12.21;51.80;101749.81;5189111;28;20025;-89
2023/05/24 02:18:06;;;;;;;1.75;0.40;;;;;;;12.18;51.62;101749.88;5190576;28;20041;-89
2023/05/24 02:20:57;;;;;;;1.65;1.05;;;;;;;12.13;51.86;101746.44;5183509;28;20064;-89
2023/05/24 02:23:48;;;;;;;0.30;0.30;;;;;;;12.08;51.61;101740.41;5173508;28;20036;-88
2023/05/24 02:26:39;;;;;;;1.48;1.38;;;;;;;12.04;51.62;101741.34;5178458;28;20049;-89
2023/05/24 02:29:30;;;;;;;1.67;0.75;;;;;;;12.03;52.09;101742.22;5178399;28;20049;-89
2023/05/24 02:32:21;;;;;;;0.50;0.50;;;;;;;11.98;52.38;101736.19;5176989;28;20049;-88
2023/05/24 02:35:12;;;;;;;0.35;0.35;;;;;;;11.98;52.04;101744.06;5185193;28;20168;-89
2023/05/24 02:38:05;;;;;;;1.67;1.25;;;;;;;11.93;52.22;101745.00;5177298;28;20026;-89
2023/05/24 02:40:56;;;;;;;0.32;0.32;;;;;;;11.94;52.61;101746.72;5178043;28;20032;-89
2023/05/24 02:43:47;;;;;;;0.25;0.25;;;;;;;11.95;52.20;101737.09;5180878;28;20037;-89
2023/05/24 02:46:38;;;;;;;0.40;0.40;;;;;;;11.87;52.58;101729.31;5174286;28;20033;-89
2023/05/24 02:49:28;;;;;;;0.95;0.88;;;;;;;11.81;52.35;101729.41;5176296;28;20104;-90
2023/05/24 02:52:22;;;;;;;0.60;0.60;;;;;;;11.79;52.67;101733.81;5178114;28;20720;-88
2023/05/24 02:55:13;;;;;;;0.40;0.40;;;;;;;11.73;53.16;101732.19;5202046;28;20026;-89
2023/05/24 02:58:03;;;;;;;0.40;0.40;;;;;;;11.69;52.39;101740.13;5188324;28;20061;-89
2023/05/24 03:00:54;;;;;;;0.30;0.30;;;;;;;11.62;52.47;101734.94;5186861;28;20437;-89
2023/05/24 03:03:45;;;;;;;0.55;0.50;;;;;;;11.64;53.46;101743.69;5194659;28;20025;-88
2023/05/24 03:06:36;;;;;;;0.50;0.50;;;;;;;11.62;52.84;101742.84;5178554;28;20192;-88
2023/05/24 03:09:27;;;;;;;0.40;0.40;;;;;;;11.58;52.45;101738.53;5175779;28;20021;-89
2023/05/24 03:12:18;;;;;;;0.50;0.50;;;;;;;11.58;52.76;101738.53;5187511;28;20029;-87
2023/05/24 03:15:09;;;;;;;0.50;0.50;;;;;;;11.55;52.81;101733.31;5173730;28;20408;-88
2023/05/24 03:18:00;;;;;;;0.75;0.75;;;;;;;11.50;52.78;101737.78;5187781;28;20493;-87
2023/05/24 03:20:50;;;;;;;0.32;0.32;;;;;;;11.48;52.57;101745.69;5195408;28;20113;-88
2023/05/24 03:23:41;;;;;;;0.77;0.77;;;;;;;11.41;51.96;101743.16;5175887;28;20568;-88
2023/05/24 03:26:32;;;;;;;0.30;0.30;;;;;;;11.33;52.79;101744.13;5169950;28;20041;-89
2023/05/24 03:29:23;;;;;;;0.30;0.30;;;;;;;11.37;53.22;101744.97;5183713;28;20805;-88
2023/05/24 03:32:13;;;;;;;0.40;0.40;;;;;;;11.38;53.10;101745.81;5170435;28;20454;-88
2023/05/24 03:35:05;;;;;;;0.35;0.35;;;;;;;11.33;53.69;101738.88;5190085;28;20029;-87
2023/05/24 03:37:55;;;;;;;0.30;0.30;;;;;;;11.29;52.61;101737.19;5172585;28;20036;-88
2023/05/24 03:40:46;;;;;;;0.52;0.52;;;;;;;11.32;53.00;101745.03;5180379;28;20049;-87
2023/05/24 03:43:37;;;;;;;0.57;0.57;;;;;;;11.28;53.12;101735.44;5177115;28;20047;-88
2023/05/24 03:46:28;;;;;;;0.30;0.30;;;;;;;11.27;53.35;101744.22;5189621;28;20017;-88
2023/05/24 03:49:18;;;;;;;0.20;0.20;;;;;;;11.20;53.78;101742.56;5206264;28;20018;-88
2023/05/24 03:52:09;;;;;;;0.28;0.28;;;;;;;11.24;53.65;101748.66;5198137;28;20030;-87
2023/05/24 03:55:00;;;;;;;1.27;1.23;;;;;;;11.24;54.00;101743.41;5170424;28;20030;-88
2023/05/24 03:57:51;;;;;;;0.75;0.75;;;;;;;11.22;54.00;101746.03;5171869;28;20038;-88
2023/05/24 04:00:41;;;;;;;0.30;0.30;;;;;;;11.20;53.81;101739.94;5184400;28;20038;-88
2023/05/24 04:03:32;;;;;;;0.65;0.65;;;;;;;11.21;53.96;101743.44;5196176;28;20085;-87
2023/05/24 04:06:28;;;;;;;0.55;0.55;;;;;;;11.16;54.03;101746.97;5184508;28;20597;-87
2023/05/24 04:09:21;;;;;;;0.30;0.30;;;;;;;11.11;54.50;101759.31;5186836;28;20116;-88
2023/05/24 04:12:12;;;;;;;0.70;0.68;;;;;;;11.11;53.65;101763.72;5170772;28;20044;-87
2023/05/24 04:15:03;;;;;;;1.15;1.02;;;;;;;11.03;54.58;101771.66;5167925;28;20029;-88
2023/05/24 04:17:54;;;;;;;0.43;0.43;;;;;;;11.03;54.77;101772.53;5172282;28;20038;-88
2023/05/24 04:20:45;;;;;;;0.77;0.77;;;;;;;11.05;53.67;101771.66;5171851;28;20052;-87
2023/05/24 04:23:39;;;;;;;0.55;0.55;;;;;;;11.02;54.15;101768.19;5170994;28;20056;-88
2023/05/24 04:26:30;;;;;;;0.38;0.38;;;;;;;11.00;53.97;101762.09;5187025;28;20030;-87
2023/05/24 04:29:21;;;;;;;0.32;0.32;;;;;;;11.03;54.40;101764.66;5172756;28;20022;-88
2023/05/24 04:32:13;;;;;;;0.20;0.20;;;;;;;11.06;54.77;101770.75;5172911;28;20029;-88
2023/05/24 04:35:04;;;;;;;2.17;0.95;;;;;;;10.93;55.21;101765.66;5166169;28;20064;-87
2023/05/24 04:37:56;;;;;;;0.40;0.40;;;;;;;10.81;56.44;101756.19;5192222;28;20038;-87
2023/05/24 04:40:47;;;;;;;1.13;1.02;;;;;;;10.85;55.97;101759.66;5189202;28;20061;-88
2023/05/24 04:43:37;;;;;;;1.05;0.95;;;;;;;10.89;55.82;101763.09;5206262;28;20037;-88
2023/05/24 04:46:28;;;;;;;0.35;0.35;;;;;;;10.88;56.00;101772.72;5204581;28;20041;-87
2023/05/24 04:49:19;;;;;;;0.85;0.85;;;;;;;10.93;55.43;101770.03;5188455;28;20042;-87
2023/05/24 04:52:10;;;;;;;0.22;0.22;;;;;;;10.94;56.27;101771.78;5172444;28;20093;-87
2023/05/24 04:55:02;;;;;;;0.68;0.68;;;;;;;10.91;55.07;101779.72;5180698;28;20033;-88
2023/05/24 04:57:53;;;;;;;1.50;1.38;;;;;;;10.95;55.88;101784.88;5200683;28;20512;-87
2023/05/24 05:00:44;;;;;;;0.50;0.50;;;;;;;10.96;55.18;101784.00;5172165;28;20041;-87
2023/05/24 05:03:35;;;;;;;0.98;0.80;;;;;;;10.96;55.99;101781.38;5184798;28;20029;-89
2023/05/24 05:06:25;;;;;;;0.25;0.25;;;;;;;10.95;55.61;101779.63;5171962;28;20065;-88
2023/05/24 05:09:17;;;;;;;0.60;0.60;;;;;;;10.99;55.43;101794.47;5172475;28;20022;-87
2023/05/24 05:12:08;;;;;;;0.38;0.38;;;;;;;10.98;56.37;101794.50;5186677;28;20049;-88
2023/05/24 05:14:59;;;;;;;0.30;0.30;;;;;;;10.99;56.08;101801.50;5184367;28;20034;-88
2023/05/24 05:17:49;;;;;;;0.30;0.30;;;;;;;11.02;55.80;101797.06;5175816;28;20029;-88
2023/05/24 05:20:40;;;;;;;0.60;0.60;;;;;;;10.99;57.57;101809.38;5173496;28;20061;-87
2023/05/24 05:23:31;;;;;;;0.50;0.50;;;;;;;11.01;56.64;101805.84;5199468;28;20056;-88
2023/05/24 05:26:22;;;;;;;0.30;0.30;;;;;;;10.87;58.90;101810.34;5192663;28;20038;-88
2023/05/24 05:29:12;;;;;;;1.63;1.45;;;;;;;10.84;59.99;101813.03;5204470;28;20032;-87
2023/05/24 05:32:03;;;;;;;0.40;0.40;;;;;;;10.70;59.95;101815.78;5179280;28;20046;-88
2023/05/24 05:34:54;;;;;;;0.50;0.50;;;;;;;10.86;57.86;101816.53;5182650;28;20769;-89
2023/05/24 05:37:45;;;;;;;0.35;0.35;;;;;;;10.91;57.77;101809.44;5191553;28;20044;-89
2023/05/24 05:40:36;;;;;;;2.30;1.17;;;;;;;11.00;57.37;101825.09;5175733;28;20036;-88
2023/05/24 05:43:27;;;;;;;0.40;0.40;;;;;;;11.03;57.40;101811.06;5170188;28;20048;-87
2023/05/24 05:46:20;;;;;;;4.75;1.95;;;;;;;11.03;58.88;101811.91;5182882;28;20116;-87
2023/05/24 05:49:12;;;;;;;0.75;0.75;;;;;;;11.19;58.47;101809.13;5183856;28;20029;-85
2023/05/24 05:52:04;;;;;;;0.57;0.57;;;;;;;11.25;57.87;101808.16;5183560;28;20069;-87
2023/05/24 05:54:55;;;;;;;0.40;0.40;;;;;;;11.26;57.72;101795.03;5186146;28;20021;-86
2023/05/24 05:57:46;;;;;;;0.50;0.50;;;;;;;11.29;59.31;101802.00;5183869;28;20037;-86
2023/05/24 06:00:37;;;;;;;3.22;1.67;;;;;;;11.31;58.00;101808.13;5176726;28;20037;-87
2023/05/24 06:03:28;;;;;;;0.95;0.95;;;;;;;11.36;58.72;101801.03;5184184;28;20049;-87
2023/05/24 06:06:19;;;;;;;2.83;1.05;;;;;;;11.13;61.29;101803.94;5172238;28;20112;-86
2023/05/24 06:09:10;;;;;;;0.77;0.77;;;;;;;11.25;59.43;101802.91;5183293;28;20037;-86
2023/05/24 06:12:00;;;;;;;0.30;0.30;;;;;;;11.39;60.69;101808.00;5171660;28;20029;-86
2023/05/24 06:14:51;;;;;;;0.60;0.60;;;;;;;11.38;60.96;101801.00;5182024;28;20044;-87
2023/05/24 06:17:42;;;;;;;0.70;0.70;;;;;;;11.29;61.90;101799.38;5181788;28;20513;-87
2023/05/24 06:20:33;;;;;;;0.45;0.43;;;;;;;11.28;60.61;101801.13;5173168;28;20029;-88
2023/05/24 06:23:24;;;;;;;0.63;0.63;;;;;;;10.82;65.30;101804.28;5194581;28;20122;-89
2023/05/24 06:26:15;;;;;;;1.63;1.52;;;;;;;10.94;64.07;101801.56;5177531;28;20053;-87
2023/05/24 06:29:05;;;;;;;2.85;1.42;;;;;;;11.18;61.25;101802.16;5188574;28;20030;-88
2023/05/24 06:31:56;;;;;;;0.50;0.50;;;;;;;11.20;62.88;101795.09;5183315;28;20041;-88
2023/05/24 06:34:47;;;;;;;1.42;0.90;;;;;;;11.12;63.65;101796.94;5173278;28;20037;-87
2023/05/24 06:37:38;;;;;;;0.80;0.68;;;;;;;11.37;61.40;101800.16;5207880;28;20497;-89
2023/05/24 06:40:29;;;;;;;0.38;0.38;;;;;;;11.39;60.78;101811.50;5190469;28;20121;-87
2023/05/24 06:43:20;;;;;;;4.90;2.75;;;;;;;11.38;61.22;101808.88;5185835;28;20040;-87
2023/05/24 06:46:11;;;;;;;0.30;0.30;;;;;;;11.28;63.25;101805.53;5190577;28;20065;-86
2023/05/24 06:49:02;;;;;;;0.30;0.30;;;;;;;11.02;65.26;101811.94;5190314;28;20017;-89
2023/05/24 06:51:52;;;;;;;4.38;1.85;;;;;;;10.99;65.79;101815.50;5174438;28;20508;-88
2023/05/24 06:54:43;;;;;;;0.38;0.38;;;;;;;11.07;65.45;101835.53;5184120;28;20421;-88
2023/05/24 06:57:34;;;;;;;1.48;0.85;;;;;;;11.22;64.42;101829.25;5174507;28;20068;-88
2023/05/24 07:00:26;;;;;;;0.60;0.60;;;;;;;11.46;61.48;101812.28;5188592;28;20033;-90
2023/05/24 07:03:16;;;;;;;0.47;0.47;;;;;;;11.59;63.31;101813.88;5186529;28;20033;-87
2023/05/24 07:06:08;;;;;;;0.90;0.90;;;;;;;11.58;63.98;101811.25;5174061;28;20400;-88
2023/05/24 07:09:03;;;;;;;3.05;1.05;;;;;;;11.68;63.28;101823.38;5171016;28;20163;-86
2023/05/24 07:11:54;;;;;;;1.10;1.10;;;;;;;11.89;61.97;101811.69;5197500;28;20028;-88
2023/05/24 07:14:44;;;;;;;12.50;1.35;;;;;;;11.81;62.81;101818.81;5172807;28;20029;-87
2023/05/24 07:17:35;;;;;;;2.30;1.33;;;;;;;12.02;61.22;101824.69;5191339;28;20057;-87
2023/05/24 07:20:27;;;;;;;1.00;0.70;;;;;;;11.89;62.39;101823.97;5190681;28;20040;-88
2023/05/24 07:23:18;;;;;;;0.55;0.55;;;;;;;11.82;62.34;101820.56;5176777;28;20040;-88
2023/05/24 07:26:09;;;;;;;0.60;0.60;;;;;;;11.98;61.27;101820.34;5172916;28;20021;-88
2023/05/24 07:29:00;;;;;;;1.23;1.15;;;;;;;11.56;62.71;101821.78;5183863;28;20018;-88
2023/05/24 07:31:51;;;;;;;0.30;0.30;;;;;;;11.81;62.33;101824.06;5182936;28;20026;-87
2023/05/24 07:34:42;;;;;;;0.40;0.40;;;;;;;12.12;60.82;101832.41;5172126;28;20033;-87
2023/05/24 07:37:33;;;;;;;0.50;0.50;;;;;;;12.18;60.50;101825.31;5175351;28;20093;-87
2023/05/24 07:40:25;;;;;;;5.97;1.90;;;;;;;12.06;61.55;101829.00;5179027;28;20064;-88
2023/05/24 07:43:16;;;;;;;2.83;0.70;;;;;;;12.00;62.47;101834.34;5169365;28;20037;-88
2023/05/24 07:46:07;;;;;;;0.52;0.52;;;;;;;12.00;61.76;101839.63;5173018;28;20041;-88
2023/05/24 07:48:57;;;;;;;1.13;1.05;;;;;;;12.18;61.52;101836.72;5173013;28;20145;-88
2023/05/24 07:51:48;;;;;;;2.10;1.92;;;;;;;12.44;60.13;101838.00;5169053;28;20065;-87
2023/05/24 07:54:39;;;;;;;5.78;2.30;;;;;;;12.28;61.40;101824.25;5177602;28;20029;-88
2023/05/24 07:57:30;;;;;;;1.85;1.75;;;;;;;12.27;61.22;101828.63;5191510;28;20120;-87
2023/05/24 08:00:21;;;;;;;3.55;1.05;;;;;;;12.48;60.04;101823.94;5177944;28;20053;-88
2023/05/24 08:03:14;;;;;;;1.50;1.40;;;;;;;12.58;59.77;101820.25;5184348;28;20045;-88
2023/05/24 08:06:05;;;;;;;0.20;0.20;;;;;;;12.48;60.13;101825.69;5182061;28;20670;-88
2023/05/24 08:08:55;;;;;;;0.52;0.52;;;;;;;12.61;60.00;101814.03;5166810;28;20284;-88
2023/05/24 08:11:46;;;;;;;8.57;1.85;;;;;;;12.64;58.88;101821.00;5199021;28;20037;-88
2023/05/24 08:14:37;;;;;;;1.30;0.82;;;;;;;12.63;59.89;101824.53;5195402;28;20555;-87
2023/05/24 08:17:28;;;;;;;0.52;0.50;;;;;;;12.77;58.53;101822.50;5202459;28;20464;-85
2023/05/24 08:20:19;;;;;;;0.30;0.30;;;;;;;12.85;58.21;101819.75;5188225;28;20038;-87
2023/05/24 08:23:10;;;;;;;1.33;0.63;;;;;;;12.84;58.24;101807.47;5177883;28;20038;-87
2023/05/24 08:26:01;;;;;;;0.28;0.28;;;;;;;12.95;58.04;101826.59;5185157;28;20091;-87
2023/05/24 08:28:51;;;;;;;1.38;1.27;;;;;;;12.83;57.61;101819.78;5202716;28;20080;-86
2023/05/24 08:31:43;;;;;;;0.60;0.60;;;;;;;13.05;57.61;101817.63;5185029;28;20021;-86
2023/05/24 08:34:37;;;;;;;1.13;1.02;;;;;;;13.06;57.90;101821.94;5192842;28;20427;-87
2023/05/24 08:37:30;;;;;;;0.45;0.45;;;;;;;13.03;58.44;101815.88;5186404;28;20036;-88
2023/05/24 08:40:23;;;;;;;13.50;2.07;;;;;;;12.69;58.93;101824.41;5210094;28;20033;-87
2023/05/24 08:43:15;;;;;;;0.20;0.20;;;;;;;12.90;58.26;101824.03;5204830;28;20034;-88
2023/05/24 08:46:06;;;;;;;0.25;0.25;;;;;;;13.02;57.31;101822.03;5183576;28;20029;-88
2023/05/24 08:48:58;;;;;;;1.38;1.27;;;;;;;13.10;57.55;101814.84;5179649;28;20029;-87
2023/05/24 08:51:50;;;;;;;1.35;1.25;;;;;;;13.23;57.40;101826.91;5179826;28;20038;-88
2023/05/24 08:54:42;;;;;;;0.45;0.45;;;;;;;13.23;57.40;101821.63;5196181;28;20063;-88
2023/05/24 08:57:38;;;;;;;0.82;0.82;;;;;;;13.17;56.81;101820.88;5203821;28;20049;-87
2023/05/24 09:00:28;;;;;;;0.35;0.32;;;;;;;13.23;57.69;101821.63;5202210;28;20046;-88
2023/05/24 09:03:20;;;;;;;1.02;1.02;;;;;;;13.33;56.88;101817.03;5169706;28;20045;-88
2023/05/24 09:06:12;;;;;;;4.65;1.60;;;;;;;13.22;57.44;101811.97;5202579;28;20038;-87
2023/05/24 09:09:03;;;;;;;0.85;0.85;;;;;;;13.06;57.64;101818.47;5188609;28;20017;-88
2023/05/24 09:11:57;;;;;;;0.40;0.40;;;;;;;12.73;58.21;101810.31;5185355;28;20061;-87
2023/05/24 09:14:48;;;;;;;0.20;0.20;;;;;;;12.93;57.61;101806.44;5185099;28;20026;-87
2023/05/24 09:17:39;;;;;;;10.30;1.95;;;;;;;13.27;56.45;101811.00;5184966;28;20033;-88
2023/05/24 09:20:30;;;;;;;2.22;1.02;;;;;;;13.07;57.42;101809.66;5175204;28;20029;-87
2023/05/24 09:23:23;;;;;;;0.90;0.90;;;;;;;13.22;57.04;101808.50;5186160;28;20460;-87
2023/05/24 09:26:14;;;;;;;0.73;0.73;;;;;;;13.26;57.12;101814.56;5173602;28;20128;-88
2023/05/24 09:29:08;;;;;;;0.60;0.60;;;;;;;13.29;57.15;101809.22;5200421;28;20030;-87
2023/05/24 09:31:58;;;;;;;3.42;1.33;;;;;;;13.24;57.57;101806.66;5171468;28;20773;-88
2023/05/24 09:34:53;;;;;;;0.30;0.30;;;;;;;13.45;57.32;101796.63;5182194;28;20029;-87
2023/05/24 09:37:45;;;;;;;0.20;0.20;;;;;;;13.41;56.97;101806.38;5184290;28;20033;-87
2023/05/24 09:40:37;;;;;;;2.00;1.00;;;;;;;13.59;56.48;101796.31;5189425;28;20455;-87
2023/05/24 09:43:30;;;;;;;0.95;0.93;;;;;;;13.60;55.65;101792.75;5166236;28;20041;-88
2023/05/24 09:46:21;;;;;;;1.07;1.03;;;;;;;13.56;56.09;101791.09;5177081;28;20125;-88
2023/05/24 09:49:12;;;;;;;2.40;1.75;;;;;;;13.35;55.35;101796.78;5185326;28;20021;-88
2023/05/24 09:52:03;;;;;;;0.43;0.43;;;;;;;13.65;55.57;101798.81;5169170;28;20033;-88
2023/05/24 09:54:54;;;;;;;0.30;0.30;;;;;;;13.77;55.86;101795.88;5167278;28;20036;-88
2023/05/24 09:58:01;;;;;;;8.35;2.83;;;;;;;13.73;54.80;101803.88;5171441;28;20120;-87
2023/05/24 10:01:03;;;;;;;1.83;0.93;;;;;;;13.79;55.19;101801.97;5185496;28;20034;-87
2023/05/24 10:03:57;;;;;;;0.90;0.90;;;;;;;13.87;55.35;101803.56;5189187;28;20088;-88
2023/05/24 10:06:48;;;;;;;0.30;0.30;;;;;;;13.87;55.79;101799.19;5185666;28;20494;-88
2023/05/24 10:09:39;;;;;;;0.22;0.22;;;;;;;13.88;55.57;101800.03;5175889;28;20045;-88
2023/05/24 10:12:32;;;;;;;1.05;0.95;;;;;;;13.97;55.06;101794.53;5160997;28;20035;-88
2023/05/24 10:15:24;;;;;;;5.03;1.90;;;;;;;14.07;54.33;101797.81;5202338;28;20038;-88
2023/05/24 10:18:15;;;;;;;0.52;0.52;;;;;;;13.79;54.75;101794.06;5171537;28;20045;-88
2023/05/24 10:21:07;;;;;;;1.80;1.15;;;;;;;14.00;54.40;101792.69;5172403;28;20507;-86
2023/05/24 10:24:01;;;;;;;7.78;1.38;;;;;;;13.88;54.99;101793.00;5183785;28;20037;-87
2023/05/24 10:26:52;;;;;;;;;;;;;;;14.04;54.77;101787.34;5171827;28;20770;-87
2023/05/24 10:30:08;;;;;;;0.40;0.40;;;;;;;13.98;55.15;101794.50;5180256;28;19936;-87
2023/05/24 10:33:01;;;;;;;5.55;1.60;;;;;;;14.02;55.54;101795.28;5191181;28;20030;-88
2023/05/24 10:35:53;;;;;;;0.77;0.77;;;;;;;14.20;56.16;101788.72;5179277;28;20116;-87
2023/05/24 10:38:47;;;;;;;0.68;0.68;;;;;;;14.04;55.01;101803.19;5183371;28;20723;-87
2023/05/24 10:41:42;;;;;;;0.98;0.65;;;;;;;14.20;55.11;101787.81;5182669;28;20044;-88
2023/05/24 10:44:33;;;;;;;1.15;0.75;;;;;;;14.38;54.73;101790.00;5182894;28;20025;-86
2023/05/24 10:47:27;;;;;;;0.40;0.40;;;;;;;14.44;55.36;101787.19;5200197;28;20036;-88
2023/05/24 10:50:20;;;;;;;2.67;1.13;;;;;;;14.57;54.72;101782.44;5197867;28;20037;-88
2023/05/24 10:53:14;;;;;;;1.30;1.20;;;;;;;14.52;53.54;101780.84;5169769;28;20113;-87
2023/05/24 10:56:08;;;;;;;0.28;0.28;;;;;;;14.79;53.60;101776.63;5174903;28;20120;-88
2023/05/24 10:59:04;;;;;;;0.30;0.30;;;;;;;14.86;54.13;101772.91;5169140;28;20065;-87
2023/05/24 11:01:59;;;;;;;0.30;0.30;;;;;;;14.92;52.77;101770.09;5184442;28;20040;-87
2023/05/24 11:04:51;;;;;;;1.02;1.02;;;;;;;15.01;52.54;101771.56;5200794;28;20030;-87
2023/05/24 11:07:42;;;;;;;0.73;0.73;;;;;;;14.98;51.19;101770.81;5204996;28;20524;-87
2023/05/24 11:10:34;;;;;;;0.60;0.60;;;;;;;15.04;52.29;101763.56;5172255;28;20034;-87
2023/05/24 11:13:26;;;;;;;0.55;0.55;;;;;;;15.17;51.88;101768.47;5176070;28;20037;-88
2023/05/24 11:16:36;;;;;;;0.82;0.82;;;;;;;15.16;52.46;101775.56;5173117;28;20048;-87
2023/05/24 11:19:33;;;;;;;1.15;1.05;;;;;;;14.83;50.65;101764.19;5187794;28;20544;-88
2023/05/24 11:22:25;;;;;;;0.77;0.77;;;;;;;15.01;51.43;101765.44;5203999;28;20092;-87
2023/05/24 11:25:17;;;;;;;0.30;0.30;;;;;;;15.11;49.85;101757.19;5176314;28;20414;-88
2023/05/24 11:28:12;;;;;;;3.70;1.17;;;;;;;15.21;49.82;101749.00;5174156;28;20179;-88
2023/05/24 11:31:08;;;;;;;0.20;0.20;;;;;;;15.00;49.59;101746.06;5174448;28;20029;-88
2023/05/24 11:33:59;;;;;;;0.50;0.50;;;;;;;15.10;50.16;101744.88;5184762;28;20029;-87
2023/05/24 11:36:54;;;;;;;0.50;0.50;;;;;;;15.17;49.65;101753.50;5169746;28;20678;-88
2023/05/24 11:39:50;;;;;;;0.57;0.57;;;;;;;15.35;50.25;101744.13;5183055;28;20037;-88
2023/05/24 11:42:43;;;;;;;0.35;0.35;;;;;;;15.37;49.57;101752.91;5187847;28;20519;-87
2023/05/24 11:45:33;;;;;;;0.85;0.82;;;;;;;15.38;49.50;101746.69;5206339;28;20045;-88
2023/05/24 11:48:24;;;;;;;0.40;0.40;;;;;;;15.57;49.10;101743.50;5205736;28;20049;-88
2023/05/24 11:51:16;;;;;;;0.55;0.55;;;;;;;15.62;48.79;101744.19;5205794;28;20025;-88
2023/05/24 11:54:06;;;;;;;1.27;0.40;;;;;;;15.66;48.30;101735.22;5190604;28;20029;-88
2023/05/24 11:56:57;;;;;;;0.30;0.30;;;;;;;15.68;46.93;101746.63;5179595;28;20112;-89
2023/05/24 11:59:48;;;;;;;0.65;0.65;;;;;;;15.69;46.63;101732.50;5168685;28;20029;-88
2023/05/24 12:02:39;;;;;;;0.47;0.47;;;;;;;15.92;48.46;101730.91;5179323;28;20025;-87
2023/05/24 12:05:30;;;;;;;2.40;1.10;;;;;;;15.83;46.87;101733.81;5203228;28;20014;-88
2023/05/24 12:08:22;;;;;;;0.22;0.22;;;;;;;15.81;47.36;101733.03;5174599;28;20073;-88
2023/05/24 12:11:13;;;;;;;0.50;0.50;;;;;;;15.82;48.16;101729.47;5192014;28;20037;-88
2023/05/24 12:14:04;;;;;;;0.20;0.20;;;;;;;15.92;47.58;101735.34;5175671;28;20030;-89
2023/05/24 12:16:55;;;;;;;5.28;1.45;;;;;;;15.92;47.57;101733.53;5198176;28;20158;-89
2023/05/24 12:19:49;;;;;;;0.57;0.57;;;;;;;15.89;48.03;101741.59;5186856;28;20022;-88
2023/05/24 12:22:55;;;;;;;23.95;1.20;;;;;;;15.86;46.88;101737.28;5167335;28;20139;-87
2023/05/24 12:25:46;;;;;;;0.40;0.40;;;;;;;15.74;47.80;101746.44;5176295;28;20432;-88
2023/05/24 12:28:38;;;;;;;0.82;0.82;;;;;;;15.71;48.21;101741.25;5178079;28;20030;-87
2023/05/24 12:31:29;;;;;;;0.30;0.30;;;;;;;15.59;47.68;101736.34;5160959;28;20161;-88
2023/05/24 12:34:20;;;;;;;0.30;0.30;;;;;;;15.60;48.30;101737.22;5180541;28;20374;-88
2023/05/24 12:37:11;;;;;;;1.85;1.00;;;;;;;15.71;47.79;101741.25;5185244;28;20041;-88
2023/05/24 12:40:04;;;;;;;2.85;0.75;;;;;;;15.23;47.89;101736.59;5184000;28;20478;-87
2023/05/24 12:42:56;;;;;;;0.32;0.32;;;;;;;14.95;48.42;101750.63;5178190;28;20066;-88
2023/05/24 12:45:47;;;;;;;1.65;0.65;;;;;;;15.15;48.32;101746.53;5178756;28;20033;-87
2023/05/24 12:48:38;;;;;;;0.47;0.47;;;;;;;15.03;49.34;101745.13;5175809;28;20157;-88
2023/05/24 12:51:29;;;;;;;1.10;1.10;;;;;;;15.27;48.89;101743.50;5170512;28;20049;-87
2023/05/24 12:54:25;;;;;;;1.45;0.85;;;;;;;15.49;48.82;101740.22;5168727;28;20104;-87
2023/05/24 12:57:16;;;;;;;0.40;0.40;;;;;;;15.13;49.03;101745.72;5188184;28;20056;-87
2023/05/24 13:00:09;;;;;;;0.50;0.50;;;;;;;15.30;49.33;101740.78;5188214;28;20025;-87
2023/05/24 13:03:00;;;;;;;0.73;0.73;;;;;;;15.21;49.62;101741.06;5179996;28;20331;-88
2023/05/24 13:05:51;;;;;;;6.95;1.00;;;;;;;15.28;50.07;101745.25;5196107;28;20029;-88
2023/05/24 13:08:42;;;;;;;0.57;0.57;;;;;;;15.22;50.73;101737.50;5190285;28;20334;-87
2023/05/24 13:11:33;;;;;;;0.32;0.32;;;;;;;15.46;49.47;101750.88;5202526;28;20057;-88
2023/05/24 13:14:23;;;;;;;0.93;0.63;;;;;;;15.35;48.76;101744.13;5203990;28;20046;-88
2023/05/24 13:17:16;;;;;;;0.77;0.77;;;;;;;15.46;49.24;101741.16;5205434;28;20046;-87
2023/05/24 13:20:10;;;;;;;0.77;0.77;;;;;;;15.46;49.60;101730.56;5229399;28;20306;-87